createdAt,value
2019-05-06T16:32:15.121Z,50.40
2019-05-06T16:34:43.086Z,50.01
2019-05-06T16:37:09.827Z,48.48
2019-05-06T16:39:36.562Z,48.65
2019-05-06T16:42:03.878Z,49.62
2019-05-06T16:44:31.087Z,49.24
2019-05-06T16:46:57.974Z,49.90
2019-05-06T16:49:24.553Z,50.08
2019-05-06T16:51:53.332Z,50.83
2019-05-06T16:54:20.173Z,51.02
2019-05-06T16:56:55.607Z,51.41
2019-05-06T16:59:23.833Z,51.57
2019-05-06T17:01:52.300Z,51.58
2019-05-06T17:04:26.645Z,51.26
2019-05-06T17:06:53.547Z,51.56
2019-05-06T17:09:23.894Z,51.48
2019-05-06T17:11:49.051Z,51.11
2019-05-06T17:14:15.742Z,51.19
2019-05-06T17:16:43.281Z,50.99
2019-05-06T17:19:09.926Z,50.89
2019-05-06T17:21:36.455Z,51.08
2019-05-06T17:24:13.447Z,51.69
2019-05-06T17:26:42.417Z,52.18
2019-05-06T17:29:26.121Z,51.53
2019-05-06T17:32:02.532Z,51.42
2019-05-06T17:34:32.193Z,52.16
2019-05-06T17:37:04.528Z,51.91
2019-05-06T17:39:32.698Z,52.46
2019-05-06T17:41:59.942Z,52.70
2019-05-06T17:44:26.476Z,51.85
2019-05-06T17:47:07.503Z,52.00
2019-05-06T17:49:34.550Z,52.62
2019-05-06T17:52:07.041Z,52.56
2019-05-06T17:54:33.723Z,52.82
2019-05-06T17:57:03.859Z,51.62
2019-05-06T17:59:29.153Z,50.93
2019-05-06T18:01:58.703Z,51.14
2019-05-06T18:04:25.786Z,50.94
2019-05-06T18:06:56.276Z,50.73
2019-05-06T18:09:23.170Z,50.74
2019-05-06T18:11:58.481Z,50.40
2019-05-06T18:14:20.084Z,50.51
2019-05-06T18:16:46.824Z,50.74
2019-05-06T18:19:13.403Z,50.80
2019-05-06T18:21:40.112Z,50.63
2019-05-06T18:24:09.687Z,50.74
2019-05-06T18:26:35.413Z,51.64
2019-05-06T18:29:02.661Z,51.48
2019-05-06T18:31:29.273Z,52.06
2019-05-06T18:33:55.921Z,52.02
2019-05-06T18:36:22.861Z,52.56
2019-05-06T18:38:49.489Z,52.80
2019-05-06T18:41:16.240Z,53.05
2019-05-06T18:43:42.915Z,53.60
2019-05-06T18:46:11.675Z,53.88
2019-05-06T18:48:38.331Z,53.86
2019-05-06T18:51:04.929Z,53.69
2019-05-06T18:53:33.248Z,53.91
2019-05-06T18:56:03.067Z,54.12
2019-05-06T18:58:30.612Z,54.02
2019-05-06T19:00:57.236Z,52.99
2019-05-06T19:03:25.631Z,53.69
2019-05-06T19:05:53.027Z,53.91
2019-05-06T19:08:33.202Z,53.48
2019-05-06T19:10:59.938Z,53.40
2019-05-06T19:13:26.584Z,53.99
2019-05-06T19:15:53.425Z,53.43
2019-05-06T19:18:22.379Z,52.47
2019-05-06T19:20:48.734Z,52.95
2019-05-06T19:23:15.413Z,52.50
2019-05-06T19:25:42.851Z,52.95
2019-05-06T19:28:09.518Z,52.66
2019-05-06T19:30:36.307Z,53.12
2019-05-06T19:33:03.222Z,53.14
2019-05-06T19:35:32.353Z,53.46
2019-05-06T19:37:59.544Z,53.39
2019-05-06T19:40:26.109Z,53.82
2019-05-06T19:42:53.398Z,54.37
2019-05-06T19:45:22.465Z,54.89
2019-05-06T19:47:49.351Z,55.00
2019-05-06T19:50:21.016Z,55.21
2019-05-06T19:52:46.638Z,55.71
2019-05-06T19:55:13.433Z,56.05
2019-05-06T19:57:40.241Z,55.74
2019-05-06T20:00:07.589Z,56.38
2019-05-06T20:02:34.253Z,56.44
2019-05-06T20:05:05.739Z,56.77
2019-05-06T20:08:04.289Z,56.75
2019-05-06T20:10:49.462Z,56.76
2019-05-06T20:13:16.177Z,56.51
2019-05-06T20:15:42.980Z,56.85
2019-05-06T20:18:10.140Z,56.69
2019-05-06T20:20:36.956Z,56.58
2019-05-06T20:23:03.965Z,56.78
2019-05-06T20:25:32.601Z,57.77
2019-05-06T20:27:59.263Z,57.27
2019-05-06T20:30:27.093Z,57.74
2019-05-06T20:32:53.846Z,57.98
2019-05-06T20:35:23.780Z,57.91
2019-05-06T20:37:50.793Z,58.03
2019-05-06T20:40:17.561Z,58.25
2019-05-06T20:42:44.313Z,58.51
2019-05-06T20:45:12.804Z,58.46
2019-05-06T20:47:39.641Z,58.84
2019-05-06T20:50:07.152Z,59.08
2019-05-06T20:52:33.847Z,59.31
2019-05-06T20:55:02.781Z,59.55
2019-05-06T20:57:29.529Z,59.86
2019-05-06T20:59:56.259Z,60.09
2019-05-06T21:02:25.570Z,60.47
2019-05-06T21:04:51.886Z,60.55
2019-05-06T21:07:18.620Z,61.04
2019-05-06T21:09:45.250Z,61.12
2019-05-06T21:12:11.890Z,61.09
2019-05-06T21:14:38.580Z,61.59
2019-05-06T21:17:05.432Z,61.62
2019-05-06T21:19:33.107Z,61.70
2019-05-06T21:22:02.195Z,61.92
2019-05-06T21:24:28.709Z,62.00
2019-05-06T21:26:55.372Z,62.08
2019-05-06T21:29:23.265Z,62.22
2019-05-06T21:31:50.046Z,62.51
2019-05-06T21:34:16.729Z,62.55
2019-05-06T21:36:43.268Z,62.72
2019-05-06T21:39:10.189Z,62.31
2019-05-06T21:41:36.823Z,62.48
2019-05-06T21:44:03.724Z,62.56
2019-05-06T21:46:31.910Z,62.64
2019-05-06T21:48:58.979Z,62.92
2019-05-06T21:51:25.667Z,62.88
2019-05-06T21:53:52.197Z,63.03
2019-05-06T21:56:18.848Z,63.13
2019-05-06T21:58:45.485Z,63.19
2019-05-06T22:01:12.642Z,63.24
2019-05-06T22:03:43.197Z,63.36
2019-05-06T22:06:10.092Z,63.66
2019-05-06T22:08:36.629Z,63.66
2019-05-06T22:11:03.616Z,63.80
2019-05-06T22:13:30.283Z,64.09
2019-05-06T22:15:56.935Z,64.29
2019-05-06T22:18:23.685Z,64.36
2019-05-06T22:21:13.556Z,64.48
2019-05-06T22:24:08.770Z,64.54
2019-05-06T22:26:35.301Z,64.69
2019-05-06T22:29:02.401Z,64.71
2019-05-06T22:31:28.933Z,64.88
2019-05-06T22:33:55.700Z,64.91
2019-05-06T22:36:22.998Z,65.05
2019-05-06T22:38:49.650Z,65.32
2019-05-06T22:41:16.464Z,65.58
2019-05-06T22:43:43.102Z,65.86
2019-05-06T22:46:09.699Z,66.06
2019-05-06T22:48:36.333Z,66.04
2019-05-06T22:51:03.151Z,66.01
2019-05-06T22:53:29.798Z,66.22
2019-05-06T22:55:58.872Z,66.37
2019-05-06T22:58:25.496Z,66.45
2019-05-06T23:00:53.728Z,66.07
2019-05-06T23:03:22.794Z,66.08
2019-05-06T23:05:49.347Z,66.17
2019-05-06T23:08:16.012Z,66.24
2019-05-06T23:10:42.669Z,66.39
2019-05-06T23:13:09.229Z,66.36
2019-05-06T23:15:35.763Z,66.62
2019-05-06T23:18:02.462Z,66.63
2019-05-06T23:20:29.038Z,66.66
2019-05-06T23:22:55.571Z,66.62
2019-05-06T23:25:22.275Z,66.81
2019-05-06T23:27:48.809Z,66.73
2019-05-06T23:30:15.526Z,66.69
2019-05-06T23:32:42.387Z,66.78
2019-05-06T23:35:09.078Z,66.90
2019-05-06T23:38:12.638Z,66.97
2019-05-06T23:41:16.180Z,67.06
2019-05-06T23:44:19.756Z,67.16
2019-05-06T23:47:23.441Z,67.54
2019-05-06T23:50:27.268Z,67.23
2019-05-06T23:53:32.548Z,67.32
2019-05-06T23:56:35.824Z,67.48
2019-05-06T23:59:02.579Z,67.54
